sensor_id;sensor_type;location;lat;lon;timestamp;P1;durP1;ratioP1;P2;durP2;ratioP2
17650;SDS011;26663;59.302;18.082;2023-04-26T00:01:32;16.02;;;8.15;;
17650;SDS011;26663;59.302;18.082;2023-04-26T00:04:38;20.77;;;8.77;;
17650;SDS011;26663;59.302;18.082;2023-04-26T00:07:44;19.10;;;8.52;;
17650;SDS011;26663;59.302;18.082;2023-04-26T00:10:50;22.08;;;9.30;;
17650;SDS011;26663;59.302;18.082;2023-04-26T00:13:56;19.83;;;8.85;;
17650;SDS011;26663;59.302;18.082;2023-04-26T00:17:01;18.27;;;8.73;;
17650;SDS011;26663;59.302;18.082;2023-04-26T00:20:09;17.10;;;8.25;;
17650;SDS011;26663;59.302;18.082;2023-04-26T00:23:15;17.52;;;9.05;;
17650;SDS011;26663;59.302;18.082;2023-04-26T00:26:21;16.65;;;8.25;;
17650;SDS011;26663;59.302;18.082;2023-04-26T00:29:27;14.75;;;8.40;;
17650;SDS011;26663;59.302;18.082;2023-04-26T00:32:32;15.68;;;8.43;;
17650;SDS011;26663;59.302;18.082;2023-04-26T00:35:40;19.00;;;8.68;;
17650;SDS011;26663;59.302;18.082;2023-04-26T00:38:45;20.55;;;9.27;;
17650;SDS011;26663;59.302;18.082;2023-04-26T00:41:52;21.58;;;9.15;;
17650;SDS011;26663;59.302;18.082;2023-04-26T00:44:58;19.42;;;9.02;;
17650;SDS011;26663;59.302;18.082;2023-04-26T00:48:03;23.25;;;9.20;;
17650;SDS011;26663;59.302;18.082;2023-04-26T00:51:10;17.70;;;9.45;;
17650;SDS011;26663;59.302;18.082;2023-04-26T00:54:15;22.60;;;9.57;;
17650;SDS011;26663;59.302;18.082;2023-04-26T00:57:23;21.83;;;9.55;;
17650;SDS011;26663;59.302;18.082;2023-04-26T01:00:29;27.98;;;9.70;;
17650;SDS011;26663;59.302;18.082;2023-04-26T01:03:37;20.85;;;9.38;;
17650;SDS011;26663;59.302;18.082;2023-04-26T01:06:43;20.60;;;10.38;;
17650;SDS011;26663;59.302;18.082;2023-04-26T01:09:54;24.70;;;10.15;;
17650;SDS011;26663;59.302;18.082;2023-04-26T01:13:01;26.27;;;10.18;;
17650;SDS011;26663;59.302;18.082;2023-04-26T01:16:09;24.75;;;10.32;;
17650;SDS011;26663;59.302;18.082;2023-04-26T01:19:15;26.83;;;10.20;;
17650;SDS011;26663;59.302;18.082;2023-04-26T01:22:20;29.98;;;11.10;;
17650;SDS011;26663;59.302;18.082;2023-04-26T01:25:27;22.60;;;10.07;;
17650;SDS011;26663;59.302;18.082;2023-04-26T01:28:32;24.02;;;10.82;;
17650;SDS011;26663;59.302;18.082;2023-04-26T01:31:39;30.98;;;10.95;;
17650;SDS011;26663;59.302;18.082;2023-04-26T01:34:45;33.42;;;11.40;;
17650;SDS011;26663;59.302;18.082;2023-04-26T01:37:53;28.13;;;11.18;;
17650;SDS011;26663;59.302;18.082;2023-04-26T01:40:59;27.20;;;11.05;;
17650;SDS011;26663;59.302;18.082;2023-04-26T01:44:07;30.02;;;11.30;;
17650;SDS011;26663;59.302;18.082;2023-04-26T01:47:12;38.95;;;12.00;;
17650;SDS011;26663;59.302;18.082;2023-04-26T01:50:18;29.23;;;11.00;;
17650;SDS011;26663;59.302;18.082;2023-04-26T01:53:23;29.92;;;10.50;;
17650;SDS011;26663;59.302;18.082;2023-04-26T01:56:30;25.75;;;10.60;;
17650;SDS011;26663;59.302;18.082;2023-04-26T01:59:36;25.42;;;10.65;;
17650;SDS011;26663;59.302;18.082;2023-04-26T02:02:41;27.02;;;10.48;;
17650;SDS011;26663;59.302;18.082;2023-04-26T02:05:46;27.83;;;11.18;;
17650;SDS011;26663;59.302;18.082;2023-04-26T02:08:52;29.23;;;10.70;;
17650;SDS011;26663;59.302;18.082;2023-04-26T02:11:59;22.63;;;10.60;;
17650;SDS011;26663;59.302;18.082;2023-04-26T02:15:05;21.63;;;10.50;;
17650;SDS011;26663;59.302;18.082;2023-04-26T02:18:13;28.05;;;11.55;;
17650;SDS011;26663;59.302;18.082;2023-04-26T02:21:18;23.33;;;10.55;;
17650;SDS011;26663;59.302;18.082;2023-04-26T02:24:24;25.05;;;10.85;;
17650;SDS011;26663;59.302;18.082;2023-04-26T02:27:30;29.92;;;10.48;;
17650;SDS011;26663;59.302;18.082;2023-04-26T02:30:35;23.77;;;10.20;;
17650;SDS011;26663;59.302;18.082;2023-04-26T02:33:41;19.58;;;9.60;;
17650;SDS011;26663;59.302;18.082;2023-04-26T02:36:47;17.95;;;9.13;;
17650;SDS011;26663;59.302;18.082;2023-04-26T02:39:52;18.67;;;9.75;;
17650;SDS011;26663;59.302;18.082;2023-04-26T02:42:59;18.17;;;9.50;;
17650;SDS011;26663;59.302;18.082;2023-04-26T02:46:05;17.52;;;9.70;;
17650;SDS011;26663;59.302;18.082;2023-04-26T02:49:11;23.30;;;9.82;;
17650;SDS011;26663;59.302;18.082;2023-04-26T02:52:16;15.80;;;9.02;;
17650;SDS011;26663;59.302;18.082;2023-04-26T02:55:22;23.48;;;10.05;;
17650;SDS011;26663;59.302;18.082;2023-04-26T02:58:28;15.80;;;8.75;;
17650;SDS011;26663;59.302;18.082;2023-04-26T03:01:33;18.42;;;9.63;;
17650;SDS011;26663;59.302;18.082;2023-04-26T03:04:43;13.68;;;9.18;;
17650;SDS011;26663;59.302;18.082;2023-04-26T03:07:48;18.10;;;9.35;;
17650;SDS011;26663;59.302;18.082;2023-04-26T03:10:53;20.75;;;9.07;;
17650;SDS011;26663;59.302;18.082;2023-04-26T03:14:00;16.25;;;8.23;;
17650;SDS011;26663;59.302;18.082;2023-04-26T03:17:06;15.77;;;8.75;;
17650;SDS011;26663;59.302;18.082;2023-04-26T03:20:11;15.77;;;8.82;;
17650;SDS011;26663;59.302;18.082;2023-04-26T03:23:17;14.35;;;8.05;;
17650;SDS011;26663;59.302;18.082;2023-04-26T03:26:26;13.05;;;8.30;;
17650;SDS011;26663;59.302;18.082;2023-04-26T03:29:33;14.13;;;8.23;;
17650;SDS011;26663;59.302;18.082;2023-04-26T03:32:39;12.90;;;7.70;;
17650;SDS011;26663;59.302;18.082;2023-04-26T03:35:44;8.55;;;7.03;;
17650;SDS011;26663;59.302;18.082;2023-04-26T03:38:49;9.50;;;6.50;;
17650;SDS011;26663;59.302;18.082;2023-04-26T03:41:55;6.85;;;6.18;;
17650;SDS011;26663;59.302;18.082;2023-04-26T03:45:02;7.63;;;5.95;;
17650;SDS011;26663;59.302;18.082;2023-04-26T03:48:09;13.48;;;6.47;;
17650;SDS011;26663;59.302;18.082;2023-04-26T03:51:15;8.52;;;6.63;;
17650;SDS011;26663;59.302;18.082;2023-04-26T03:54:21;14.07;;;6.28;;
17650;SDS011;26663;59.302;18.082;2023-04-26T03:57:26;7.65;;;5.53;;
17650;SDS011;26663;59.302;18.082;2023-04-26T04:00:33;7.05;;;5.50;;
17650;SDS011;26663;59.302;18.082;2023-04-26T04:03:39;8.50;;;5.38;;
17650;SDS011;26663;59.302;18.082;2023-04-26T04:06:45;6.72;;;5.57;;
17650;SDS011;26663;59.302;18.082;2023-04-26T04:09:50;7.53;;;5.30;;
17650;SDS011;26663;59.302;18.082;2023-04-26T04:12:55;10.20;;;5.65;;
17650;SDS011;26663;59.302;18.082;2023-04-26T04:16:03;12.27;;;5.60;;
17650;SDS011;26663;59.302;18.082;2023-04-26T04:19:11;8.68;;;4.95;;
17650;SDS011;26663;59.302;18.082;2023-04-26T04:22:17;13.02;;;5.35;;
17650;SDS011;26663;59.302;18.082;2023-04-26T04:25:24;13.13;;;5.10;;
17650;SDS011;26663;59.302;18.082;2023-04-26T04:28:44;10.75;;;4.85;;
17650;SDS011;26663;59.302;18.082;2023-04-26T04:31:52;7.78;;;4.70;;
17650;SDS011;26663;59.302;18.082;2023-04-26T04:34:58;8.45;;;4.80;;
17650;SDS011;26663;59.302;18.082;2023-04-26T04:38:03;6.63;;;4.78;;
17650;SDS011;26663;59.302;18.082;2023-04-26T04:41:10;9.68;;;4.50;;
17650;SDS011;26663;59.302;18.082;2023-04-26T04:44:16;7.45;;;4.65;;
17650;SDS011;26663;59.302;18.082;2023-04-26T04:47:23;8.23;;;4.38;;
17650;SDS011;26663;59.302;18.082;2023-04-26T04:50:28;6.75;;;3.97;;
17650;SDS011;26663;59.302;18.082;2023-04-26T04:53:33;6.72;;;4.20;;
17650;SDS011;26663;59.302;18.082;2023-04-26T04:56:39;5.05;;;3.85;;
17650;SDS011;26663;59.302;18.082;2023-04-26T04:59:45;8.15;;;3.63;;
17650;SDS011;26663;59.302;18.082;2023-04-26T05:02:52;4.43;;;3.72;;
17650;SDS011;26663;59.302;18.082;2023-04-26T05:05:58;16.25;;;4.00;;
17650;SDS011;26663;59.302;18.082;2023-04-26T05:09:04;3.78;;;3.47;;
17650;SDS011;26663;59.302;18.082;2023-04-26T05:12:10;5.05;;;3.15;;
17650;SDS011;26663;59.302;18.082;2023-04-26T05:15:16;9.30;;;3.15;;
17650;SDS011;26663;59.302;18.082;2023-04-26T05:18:22;3.15;;;2.85;;
17650;SDS011;26663;59.302;18.082;2023-04-26T05:21:28;3.75;;;3.35;;
17650;SDS011;26663;59.302;18.082;2023-04-26T05:24:34;11.18;;;2.85;;
17650;SDS011;26663;59.302;18.082;2023-04-26T05:27:39;3.08;;;2.45;;
17650;SDS011;26663;59.302;18.082;2023-04-26T05:31:09;2.33;;;2.30;;
17650;SDS011;26663;59.302;18.082;2023-04-26T05:34:26;2.33;;;2.33;;
17650;SDS011;26663;59.302;18.082;2023-04-26T05:37:32;4.78;;;2.30;;
17650;SDS011;26663;59.302;18.082;2023-04-26T05:40:38;3.53;;;2.30;;
17650;SDS011;26663;59.302;18.082;2023-04-26T05:43:44;2.50;;;2.30;;
17650;SDS011;26663;59.302;18.082;2023-04-26T05:46:50;6.28;;;2.17;;
17650;SDS011;26663;59.302;18.082;2023-04-26T05:49:57;4.47;;;2.33;;
17650;SDS011;26663;59.302;18.082;2023-04-26T05:53:02;8.95;;;1.90;;
17650;SDS011;26663;59.302;18.082;2023-04-26T05:56:08;2.42;;;1.90;;
17650;SDS011;26663;59.302;18.082;2023-04-26T05:59:14;3.38;;;1.70;;
17650;SDS011;26663;59.302;18.082;2023-04-26T06:02:19;2.47;;;1.67;;
17650;SDS011;26663;59.302;18.082;2023-04-26T06:05:27;3.63;;;1.80;;
17650;SDS011;26663;59.302;18.082;2023-04-26T06:08:32;1.50;;;1.50;;
17650;SDS011;26663;59.302;18.082;2023-04-26T06:11:38;5.13;;;1.70;;
17650;SDS011;26663;59.302;18.082;2023-04-26T06:14:43;1.95;;;1.30;;
17650;SDS011;26663;59.302;18.082;2023-04-26T06:17:53;3.25;;;1.40;;
17650;SDS011;26663;59.302;18.082;2023-04-26T06:21:02;3.72;;;1.00;;
17650;SDS011;26663;59.302;18.082;2023-04-26T06:24:09;1.48;;;1.17;;
17650;SDS011;26663;59.302;18.082;2023-04-26T06:27:14;5.07;;;1.33;;
17650;SDS011;26663;59.302;18.082;2023-04-26T06:30:22;5.15;;;1.08;;
17650;SDS011;26663;59.302;18.082;2023-04-26T06:33:28;3.20;;;1.33;;
17650;SDS011;26663;59.302;18.082;2023-04-26T06:36:34;12.80;;;1.80;;
17650;SDS011;26663;59.302;18.082;2023-04-26T06:39:40;0.95;;;0.93;;
17650;SDS011;26663;59.302;18.082;2023-04-26T06:42:47;1.42;;;1.13;;
17650;SDS011;26663;59.302;18.082;2023-04-26T06:45:58;1.67;;;1.10;;
17650;SDS011;26663;59.302;18.082;2023-04-26T06:49:04;1.55;;;1.10;;
17650;SDS011;26663;59.302;18.082;2023-04-26T06:52:12;1.23;;;0.90;;
17650;SDS011;26663;59.302;18.082;2023-04-26T06:55:17;0.75;;;0.75;;
17650;SDS011;26663;59.302;18.082;2023-04-26T06:58:22;4.80;;;1.00;;
17650;SDS011;26663;59.302;18.082;2023-04-26T07:01:28;0.73;;;0.70;;
17650;SDS011;26663;59.302;18.082;2023-04-26T07:04:35;0.80;;;0.80;;
17650;SDS011;26663;59.302;18.082;2023-04-26T07:07:42;6.55;;;1.23;;
17650;SDS011;26663;59.302;18.082;2023-04-26T07:10:47;4.15;;;1.10;;
17650;SDS011;26663;59.302;18.082;2023-04-26T07:13:53;3.45;;;1.20;;
17650;SDS011;26663;59.302;18.082;2023-04-26T07:16:58;1.88;;;0.70;;
17650;SDS011;26663;59.302;18.082;2023-04-26T07:20:04;0.73;;;0.70;;
17650;SDS011;26663;59.302;18.082;2023-04-26T07:23:13;0.70;;;0.70;;
17650;SDS011;26663;59.302;18.082;2023-04-26T07:26:18;0.70;;;0.70;;
17650;SDS011;26663;59.302;18.082;2023-04-26T07:29:24;0.60;;;0.60;;
17650;SDS011;26663;59.302;18.082;2023-04-26T07:32:29;1.48;;;0.85;;
17650;SDS011;26663;59.302;18.082;2023-04-26T07:35:34;3.72;;;1.60;;
17650;SDS011;26663;59.302;18.082;2023-04-26T07:38:41;0.70;;;0.70;;
17650;SDS011;26663;59.302;18.082;2023-04-26T07:41:46;2.45;;;1.10;;
17650;SDS011;26663;59.302;18.082;2023-04-26T07:44:51;0.90;;;0.90;;
17650;SDS011;26663;59.302;18.082;2023-04-26T07:47:56;0.68;;;0.68;;
17650;SDS011;26663;59.302;18.082;2023-04-26T07:51:08;0.60;;;0.60;;
17650;SDS011;26663;59.302;18.082;2023-04-26T07:54:15;1.10;;;1.10;;
17650;SDS011;26663;59.302;18.082;2023-04-26T07:57:21;1.83;;;1.20;;
17650;SDS011;26663;59.302;18.082;2023-04-26T08:00:26;0.90;;;0.90;;
17650;SDS011;26663;59.302;18.082;2023-04-26T08:03:31;0.90;;;0.90;;
17650;SDS011;26663;59.302;18.082;2023-04-26T08:06:37;1.95;;;1.05;;
17650;SDS011;26663;59.302;18.082;2023-04-26T08:09:47;0.93;;;0.93;;
17650;SDS011;26663;59.302;18.082;2023-04-26T08:12:53;1.65;;;1.13;;
17650;SDS011;26663;59.302;18.082;2023-04-26T08:15:59;1.27;;;0.65;;
17650;SDS011;26663;59.302;18.082;2023-04-26T08:19:04;3.33;;;0.93;;
17650;SDS011;26663;59.302;18.082;2023-04-26T08:22:10;1.70;;;0.88;;
17650;SDS011;26663;59.302;18.082;2023-04-26T08:25:17;1.13;;;0.80;;
17650;SDS011;26663;59.302;18.082;2023-04-26T08:28:22;0.73;;;0.73;;
17650;SDS011;26663;59.302;18.082;2023-04-26T08:31:27;0.70;;;0.70;;
17650;SDS011;26663;59.302;18.082;2023-04-26T08:34:33;2.92;;;0.80;;
17650;SDS011;26663;59.302;18.082;2023-04-26T08:37:38;3.35;;;0.95;;
17650;SDS011;26663;59.302;18.082;2023-04-26T08:40:45;2.83;;;0.90;;
17650;SDS011;26663;59.302;18.082;2023-04-26T08:43:50;3.58;;;0.80;;
17650;SDS011;26663;59.302;18.082;2023-04-26T08:46:59;5.82;;;0.88;;
17650;SDS011;26663;59.302;18.082;2023-04-26T08:50:07;3.10;;;1.10;;
17650;SDS011;26663;59.302;18.082;2023-04-26T08:53:16;2.00;;;1.00;;
17650;SDS011;26663;59.302;18.082;2023-04-26T08:56:23;2.55;;;0.80;;
17650;SDS011;26663;59.302;18.082;2023-04-26T08:59:29;1.55;;;0.65;;
17650;SDS011;26663;59.302;18.082;2023-04-26T09:02:34;1.63;;;0.90;;
17650;SDS011;26663;59.302;18.082;2023-04-26T09:05:40;1.25;;;0.80;;
17650;SDS011;26663;59.302;18.082;2023-04-26T09:08:46;0.60;;;0.60;;
17650;SDS011;26663;59.302;18.082;2023-04-26T09:11:57;0.70;;;0.70;;
17650;SDS011;26663;59.302;18.082;2023-04-26T09:15:03;3.03;;;0.80;;
17650;SDS011;26663;59.302;18.082;2023-04-26T09:18:16;1.30;;;0.85;;
17650;SDS011;26663;59.302;18.082;2023-04-26T09:21:22;0.60;;;0.60;;
17650;SDS011;26663;59.302;18.082;2023-04-26T09:24:27;0.93;;;0.93;;
17650;SDS011;26663;59.302;18.082;2023-04-26T09:27:34;0.85;;;0.85;;
17650;SDS011;26663;59.302;18.082;2023-04-26T09:30:40;0.57;;;0.50;;
17650;SDS011;26663;59.302;18.082;2023-04-26T09:37:09;2.17;;;0.90;;
17650;SDS011;26663;59.302;18.082;2023-04-26T09:40:17;6.18;;;1.00;;
17650;SDS011;26663;59.302;18.082;2023-04-26T09:43:24;1.10;;;0.80;;
17650;SDS011;26663;59.302;18.082;2023-04-26T09:46:29;4.57;;;0.80;;
17650;SDS011;26663;59.302;18.082;2023-04-26T09:49:42;1.00;;;0.70;;
17650;SDS011;26663;59.302;18.082;2023-04-26T09:52:50;0.80;;;0.80;;
17650;SDS011;26663;59.302;18.082;2023-04-26T09:55:55;0.80;;;0.80;;
17650;SDS011;26663;59.302;18.082;2023-04-26T09:59:10;0.90;;;0.90;;
17650;SDS011;26663;59.302;18.082;2023-04-26T10:02:17;1.75;;;0.80;;
17650;SDS011;26663;59.302;18.082;2023-04-26T10:05:23;6.53;;;0.80;;
17650;SDS011;26663;59.302;18.082;2023-04-26T10:08:29;2.00;;;0.70;;
17650;SDS011;26663;59.302;18.082;2023-04-26T10:11:36;4.93;;;0.80;;
17650;SDS011;26663;59.302;18.082;2023-04-26T10:14:44;1.17;;;0.68;;
17650;SDS011;26663;59.302;18.082;2023-04-26T10:17:50;1.60;;;0.70;;
17650;SDS011;26663;59.302;18.082;2023-04-26T10:20:56;1.95;;;1.10;;
17650;SDS011;26663;59.302;18.082;2023-04-26T10:24:04;16.98;;;1.70;;
17650;SDS011;26663;59.302;18.082;2023-04-26T10:27:12;0.80;;;0.80;;
17650;SDS011;26663;59.302;18.082;2023-04-26T10:30:20;6.30;;;1.63;;
17650;SDS011;26663;59.302;18.082;2023-04-26T10:33:26;4.57;;;0.80;;
17650;SDS011;26663;59.302;18.082;2023-04-26T10:36:31;9.07;;;1.08;;
17650;SDS011;26663;59.302;18.082;2023-04-26T10:39:36;12.52;;;1.70;;
17650;SDS011;26663;59.302;18.082;2023-04-26T10:42:42;9.70;;;1.20;;
17650;SDS011;26663;59.302;18.082;2023-04-26T10:45:48;13.25;;;1.23;;
17650;SDS011;26663;59.302;18.082;2023-04-26T10:48:53;1.52;;;0.90;;
17650;SDS011;26663;59.302;18.082;2023-04-26T10:52:12;6.43;;;1.13;;
17650;SDS011;26663;59.302;18.082;2023-04-26T10:55:33;21.13;;;2.30;;
17650;SDS011;26663;59.302;18.082;2023-04-26T10:58:44;5.72;;;1.25;;
17650;SDS011;26663;59.302;18.082;2023-04-26T11:01:51;4.38;;;1.00;;
17650;SDS011;26663;59.302;18.082;2023-04-26T11:04:56;18.50;;;1.60;;
17650;SDS011;26663;59.302;18.082;2023-04-26T11:08:02;7.78;;;1.00;;
17650;SDS011;26663;59.302;18.082;2023-04-26T11:11:09;18.67;;;1.92;;
17650;SDS011;26663;59.302;18.082;2023-04-26T11:14:15;2.17;;;0.80;;
17650;SDS011;26663;59.302;18.082;2023-04-26T11:17:22;28.20;;;2.92;;
17650;SDS011;26663;59.302;18.082;2023-04-26T11:20:28;83.68;;;4.35;;
17650;SDS011;26663;59.302;18.082;2023-04-26T11:23:34;47.00;;;2.63;;
17650;SDS011;26663;59.302;18.082;2023-04-26T11:26:39;20.75;;;1.70;;
17650;SDS011;26663;59.302;18.082;2023-04-26T11:29:44;13.68;;;1.35;;
17650;SDS011;26663;59.302;18.082;2023-04-26T11:32:51;22.45;;;2.35;;
17650;SDS011;26663;59.302;18.082;2023-04-26T11:35:57;16.80;;;1.75;;
17650;SDS011;26663;59.302;18.082;2023-04-26T11:39:02;5.18;;;0.80;;
17650;SDS011;26663;59.302;18.082;2023-04-26T11:42:10;2.60;;;1.02;;
17650;SDS011;26663;59.302;18.082;2023-04-26T11:45:16;1.58;;;1.00;;
17650;SDS011;26663;59.302;18.082;2023-04-26T11:48:22;5.38;;;1.02;;
17650;SDS011;26663;59.302;18.082;2023-04-26T11:51:28;7.68;;;1.15;;
17650;SDS011;26663;59.302;18.082;2023-04-26T11:54:34;1.30;;;0.93;;
17650;SDS011;26663;59.302;18.082;2023-04-26T11:57:39;3.15;;;0.80;;
17650;SDS011;26663;59.302;18.082;2023-04-26T12:00:54;1.45;;;0.80;;
17650;SDS011;26663;59.302;18.082;2023-04-26T12:04:01;1.13;;;1.00;;
17650;SDS011;26663;59.302;18.082;2023-04-26T12:07:17;12.80;;;1.60;;
17650;SDS011;26663;59.302;18.082;2023-04-26T12:10:23;7.97;;;1.20;;
17650;SDS011;26663;59.302;18.082;2023-04-26T12:13:29;0.70;;;0.70;;
17650;SDS011;26663;59.302;18.082;2023-04-26T12:16:35;1.02;;;0.80;;
17650;SDS011;26663;59.302;18.082;2023-04-26T12:19:42;1.35;;;0.95;;
17650;SDS011;26663;59.302;18.082;2023-04-26T12:26:17;0.70;;;0.70;;
17650;SDS011;26663;59.302;18.082;2023-04-26T12:29:22;5.70;;;1.10;;
17650;SDS011;26663;59.302;18.082;2023-04-26T12:32:27;8.15;;;1.52;;
17650;SDS011;26663;59.302;18.082;2023-04-26T12:35:34;3.28;;;0.90;;
17650;SDS011;26663;59.302;18.082;2023-04-26T12:38:39;1.13;;;1.00;;
17650;SDS011;26663;59.302;18.082;2023-04-26T12:41:45;3.30;;;1.00;;
17650;SDS011;26663;59.302;18.082;2023-04-26T12:44:50;2.60;;;1.00;;
17650;SDS011;26663;59.302;18.082;2023-04-26T12:47:55;1.00;;;1.00;;
17650;SDS011;26663;59.302;18.082;2023-04-26T12:51:02;1.60;;;0.98;;
17650;SDS011;26663;59.302;18.082;2023-04-26T12:54:08;3.65;;;0.85;;
17650;SDS011;26663;59.302;18.082;2023-04-26T12:57:13;2.58;;;1.40;;
17650;SDS011;26663;59.302;18.082;2023-04-26T13:00:19;4.53;;;0.90;;
17650;SDS011;26663;59.302;18.082;2023-04-26T13:03:24;1.75;;;1.00;;
17650;SDS011;26663;59.302;18.082;2023-04-26T13:06:31;6.35;;;1.00;;
17650;SDS011;26663;59.302;18.082;2023-04-26T13:09:36;5.47;;;1.35;;
17650;SDS011;26663;59.302;18.082;2023-04-26T13:12:41;12.75;;;1.30;;
17650;SDS011;26663;59.302;18.082;2023-04-26T13:15:46;2.42;;;1.10;;
17650;SDS011;26663;59.302;18.082;2023-04-26T13:18:51;8.73;;;1.27;;
17650;SDS011;26663;59.302;18.082;2023-04-26T13:22:00;1.90;;;1.00;;
17650;SDS011;26663;59.302;18.082;2023-04-26T13:25:06;1.55;;;1.17;;
17650;SDS011;26663;59.302;18.082;2023-04-26T13:28:12;9.68;;;1.10;;
17650;SDS011;26663;59.302;18.082;2023-04-26T13:31:18;4.22;;;1.60;;
17650;SDS011;26663;59.302;18.082;2023-04-26T13:34:23;3.03;;;0.80;;
17650;SDS011;26663;59.302;18.082;2023-04-26T13:37:30;12.18;;;1.25;;
17650;SDS011;26663;59.302;18.082;2023-04-26T13:40:35;1.10;;;1.10;;
17650;SDS011;26663;59.302;18.082;2023-04-26T13:43:41;1.85;;;1.10;;
17650;SDS011;26663;59.302;18.082;2023-04-26T13:46:46;3.72;;;1.05;;
17650;SDS011;26663;59.302;18.082;2023-04-26T13:49:51;11.90;;;2.15;;
17650;SDS011;26663;59.302;18.082;2023-04-26T13:52:58;16.35;;;1.48;;
17650;SDS011;26663;59.302;18.082;2023-04-26T13:56:03;4.65;;;1.20;;
17650;SDS011;26663;59.302;18.082;2023-04-26T13:59:10;7.15;;;1.60;;
17650;SDS011;26663;59.302;18.082;2023-04-26T14:02:15;0.82;;;0.82;;
17650;SDS011;26663;59.302;18.082;2023-04-26T14:05:21;19.90;;;1.48;;
17650;SDS011;26663;59.302;18.082;2023-04-26T14:08:28;7.70;;;1.25;;
17650;SDS011;26663;59.302;18.082;2023-04-26T14:11:33;1.17;;;1.02;;
17650;SDS011;26663;59.302;18.082;2023-04-26T14:14:38;4.03;;;1.08;;
17650;SDS011;26663;59.302;18.082;2023-04-26T14:17:43;1.70;;;1.20;;
17650;SDS011;26663;59.302;18.082;2023-04-26T14:20:49;5.80;;;1.05;;
17650;SDS011;26663;59.302;18.082;2023-04-26T14:23:55;9.05;;;1.60;;
17650;SDS011;26663;59.302;18.082;2023-04-26T14:27:01;3.50;;;1.20;;
17650;SDS011;26663;59.302;18.082;2023-04-26T14:30:09;3.47;;;1.20;;
17650;SDS011;26663;59.302;18.082;2023-04-26T14:33:14;24.88;;;2.08;;
17650;SDS011;26663;59.302;18.082;2023-04-26T14:36:19;9.48;;;1.40;;
17650;SDS011;26663;59.302;18.082;2023-04-26T14:39:26;16.75;;;1.48;;
17650;SDS011;26663;59.302;18.082;2023-04-26T14:42:31;3.15;;;1.15;;
17650;SDS011;26663;59.302;18.082;2023-04-26T14:45:37;19.15;;;2.00;;
17650;SDS011;26663;59.302;18.082;2023-04-26T14:48:46;8.25;;;1.45;;
17650;SDS011;26663;59.302;18.082;2023-04-26T14:51:51;4.32;;;0.88;;
17650;SDS011;26663;59.302;18.082;2023-04-26T14:54:58;11.77;;;1.50;;
17650;SDS011;26663;59.302;18.082;2023-04-26T14:58:05;7.28;;;1.40;;
17650;SDS011;26663;59.302;18.082;2023-04-26T15:01:10;15.45;;;1.70;;
17650;SDS011;26663;59.302;18.082;2023-04-26T15:04:16;6.60;;;1.20;;
17650;SDS011;26663;59.302;18.082;2023-04-26T15:07:21;4.57;;;1.17;;
17650;SDS011;26663;59.302;18.082;2023-04-26T15:10:35;5.82;;;1.20;;
17650;SDS011;26663;59.302;18.082;2023-04-26T15:13:41;4.63;;;0.98;;
17650;SDS011;26663;59.302;18.082;2023-04-26T15:16:46;8.05;;;1.48;;
17650;SDS011;26663;59.302;18.082;2023-04-26T15:19:51;16.70;;;1.17;;
17650;SDS011;26663;59.302;18.082;2023-04-26T15:22:56;34.13;;;2.33;;
17650;SDS011;26663;59.302;18.082;2023-04-26T15:26:03;8.07;;;1.17;;
17650;SDS011;26663;59.302;18.082;2023-04-26T15:29:10;10.40;;;1.50;;
17650;SDS011;26663;59.302;18.082;2023-04-26T15:32:15;5.45;;;1.20;;
17650;SDS011;26663;59.302;18.082;2023-04-26T15:35:20;3.60;;;1.17;;
17650;SDS011;26663;59.302;18.082;2023-04-26T15:38:26;10.75;;;1.52;;
17650;SDS011;26663;59.302;18.082;2023-04-26T15:41:33;7.53;;;1.20;;
17650;SDS011;26663;59.302;18.082;2023-04-26T15:44:39;4.75;;;1.00;;
17650;SDS011;26663;59.302;18.082;2023-04-26T15:47:44;5.25;;;1.10;;
17650;SDS011;26663;59.302;18.082;2023-04-26T15:50:49;6.13;;;1.15;;
17650;SDS011;26663;59.302;18.082;2023-04-26T15:53:55;4.65;;;1.77;;
17650;SDS011;26663;59.302;18.082;2023-04-26T15:57:02;4.50;;;1.15;;
17650;SDS011;26663;59.302;18.082;2023-04-26T16:00:10;13.02;;;2.03;;
17650;SDS011;26663;59.302;18.082;2023-04-26T16:03:16;5.38;;;1.10;;
17650;SDS011;26663;59.302;18.082;2023-04-26T16:06:22;11.70;;;1.85;;
17650;SDS011;26663;59.302;18.082;2023-04-26T16:09:28;8.77;;;2.22;;
17650;SDS011;26663;59.302;18.082;2023-04-26T16:12:35;12.38;;;2.03;;
17650;SDS011;26663;59.302;18.082;2023-04-26T16:15:41;8.75;;;1.77;;
17650;SDS011;26663;59.302;18.082;2023-04-26T16:18:47;23.95;;;2.60;;
17650;SDS011;26663;59.302;18.082;2023-04-26T16:21:52;5.80;;;1.92;;
17650;SDS011;26663;59.302;18.082;2023-04-26T16:24:58;17.30;;;2.00;;
17650;SDS011;26663;59.302;18.082;2023-04-26T16:28:06;21.30;;;2.95;;
17650;SDS011;26663;59.302;18.082;2023-04-26T16:31:13;3.95;;;1.10;;
17650;SDS011;26663;59.302;18.082;2023-04-26T16:34:18;9.07;;;1.48;;
17650;SDS011;26663;59.302;18.082;2023-04-26T16:37:23;2.25;;;1.33;;
17650;SDS011;26663;59.302;18.082;2023-04-26T16:40:28;16.25;;;1.35;;
17650;SDS011;26663;59.302;18.082;2023-04-26T16:43:35;5.57;;;1.42;;
17650;SDS011;26663;59.302;18.082;2023-04-26T16:46:40;12.90;;;1.80;;
17650;SDS011;26663;59.302;18.082;2023-04-26T16:49:46;5.72;;;1.30;;
17650;SDS011;26663;59.302;18.082;2023-04-26T16:52:51;5.10;;;1.25;;
17650;SDS011;26663;59.302;18.082;2023-04-26T16:55:56;3.05;;;1.40;;
17650;SDS011;26663;59.302;18.082;2023-04-26T16:59:03;6.07;;;1.20;;
17650;SDS011;26663;59.302;18.082;2023-04-26T17:02:11;2.75;;;1.30;;
17650;SDS011;26663;59.302;18.082;2023-04-26T17:05:16;31.75;;;1.88;;
17650;SDS011;26663;59.302;18.082;2023-04-26T17:08:21;3.30;;;0.93;;
17650;SDS011;26663;59.302;18.082;2023-04-26T17:11:27;1.13;;;1.00;;
17650;SDS011;26663;59.302;18.082;2023-04-26T17:14:34;9.48;;;1.48;;
17650;SDS011;26663;59.302;18.082;2023-04-26T17:17:53;6.15;;;0.93;;
17650;SDS011;26663;59.302;18.082;2023-04-26T17:20:59;6.00;;;1.20;;
17650;SDS011;26663;59.302;18.082;2023-04-26T17:24:05;5.85;;;1.40;;
17650;SDS011;26663;59.302;18.082;2023-04-26T17:27:10;2.40;;;0.90;;
17650;SDS011;26663;59.302;18.082;2023-04-26T17:30:17;5.07;;;1.23;;
17650;SDS011;26663;59.302;18.082;2023-04-26T17:33:24;2.33;;;1.50;;
17650;SDS011;26663;59.302;18.082;2023-04-26T17:36:30;1.73;;;1.10;;
17650;SDS011;26663;59.302;18.082;2023-04-26T17:39:35;2.00;;;1.00;;
17650;SDS011;26663;59.302;18.082;2023-04-26T17:42:44;0.88;;;0.85;;
17650;SDS011;26663;59.302;18.082;2023-04-26T17:45:50;4.28;;;1.10;;
17650;SDS011;26663;59.302;18.082;2023-04-26T17:48:55;1.63;;;0.80;;
17650;SDS011;26663;59.302;18.082;2023-04-26T17:52:01;8.38;;;1.08;;
17650;SDS011;26663;59.302;18.082;2023-04-26T17:55:08;0.88;;;0.88;;
17650;SDS011;26663;59.302;18.082;2023-04-26T17:58:13;3.80;;;0.90;;
17650;SDS011;26663;59.302;18.082;2023-04-26T18:01:19;4.23;;;0.93;;
17650;SDS011;26663;59.302;18.082;2023-04-26T18:04:32;2.83;;;1.10;;
17650;SDS011;26663;59.302;18.082;2023-04-26T18:07:38;1.15;;;0.90;;
17650;SDS011;26663;59.302;18.082;2023-04-26T18:10:43;1.45;;;0.90;;
17650;SDS011;26663;59.302;18.082;2023-04-26T18:13:50;0.90;;;0.90;;
17650;SDS011;26663;59.302;18.082;2023-04-26T18:16:56;4.22;;;1.08;;
17650;SDS011;26663;59.302;18.082;2023-04-26T18:20:02;7.80;;;1.15;;
17650;SDS011;26663;59.302;18.082;2023-04-26T18:23:09;2.70;;;1.10;;
17650;SDS011;26663;59.302;18.082;2023-04-26T18:26:14;4.10;;;0.90;;